Flugplatz Seedorf

Für EDXS sind keine METAR/TAF Berichte vorhanden.
Es werden die Flugwettermeldungen vom Flugplatz Hamburg-Finkenwerder in 44 km Entfernung angezeigt.

Bericht für EDHI

vom 12.08. um 00:20 UTC

Wind 8 kt aus 90°

Sichtweite 10 km oder mehr

keine Wolken

Temperatur 22.0°C

Taupunkt 13.0°C

Luftfeuchtigkeit 57%

Luftdruck 1019 hPa

EDHI 120020Z AUTO 09008KT 060V150 9999 // NCD 22/13 Q1019
Keine Prognose (TAF) verfügbar.
Impressum